sensor_id;sensor_type;location;lat;lon;timestamp;temperature;humidity
18884;DHT22;9574;47.282;9.640;2023-05-10T00:02:02;14.20;99.90
18884;DHT22;9574;47.282;9.640;2023-05-10T00:04:28;14.20;99.90
18884;DHT22;9574;47.282;9.640;2023-05-10T00:06:57;14.20;99.90
18884;DHT22;9574;47.282;9.640;2023-05-10T00:09:24;14.20;99.90
18884;DHT22;9574;47.282;9.640;2023-05-10T00:11:51;14.30;99.90
18884;DHT22;9574;47.282;9.640;2023-05-10T00:14:18;14.50;99.90
18884;DHT22;9574;47.282;9.640;2023-05-10T00:16:45;14.90;99.90
18884;DHT22;9574;47.282;9.640;2023-05-10T00:19:12;15.20;99.90
18884;DHT22;9574;47.282;9.640;2023-05-10T00:21:39;15.30;99.90
18884;DHT22;9574;47.282;9.640;2023-05-10T00:24:07;15.50;99.90
18884;DHT22;9574;47.282;9.640;2023-05-10T00:26:34;15.20;99.90
18884;DHT22;9574;47.282;9.640;2023-05-10T00:29:01;14.90;99.90
18884;DHT22;9574;47.282;9.640;2023-05-10T00:31:28;14.70;99.90
18884;DHT22;9574;47.282;9.640;2023-05-10T00:33:55;14.50;99.90
18884;DHT22;9574;47.282;9.640;2023-05-10T00:36:22;14.40;99.90
18884;DHT22;9574;47.282;9.640;2023-05-10T00:38:49;14.40;99.90
18884;DHT22;9574;47.282;9.640;2023-05-10T00:41:18;14.50;99.90
18884;DHT22;9574;47.282;9.640;2023-05-10T00:43:46;14.40;99.90
18884;DHT22;9574;47.282;9.640;2023-05-10T00:46:14;14.40;99.90
18884;DHT22;9574;47.282;9.640;2023-05-10T00:48:42;14.40;99.90
18884;DHT22;9574;47.282;9.640;2023-05-10T00:51:09;14.80;99.90
18884;DHT22;9574;47.282;9.640;2023-05-10T00:53:36;15.10;99.90
18884;DHT22;9574;47.282;9.640;2023-05-10T00:56:03;15.30;99.90
18884;DHT22;9574;47.282;9.640;2023-05-10T00:58:32;15.30;99.90
18884;DHT22;9574;47.282;9.640;2023-05-10T01:01:00;14.80;99.90
18884;DHT22;9574;47.282;9.640;2023-05-10T01:03:28;14.40;99.90
18884;DHT22;9574;47.282;9.640;2023-05-10T01:05:55;14.30;99.90
18884;DHT22;9574;47.282;9.640;2023-05-10T01:08:22;14.30;99.90
18884;DHT22;9574;47.282;9.640;2023-05-10T01:10:49;14.30;99.90
18884;DHT22;9574;47.282;9.640;2023-05-10T01:13:27;14.20;99.90
18884;DHT22;9574;47.282;9.640;2023-05-10T01:15:57;14.10;99.90
18884;DHT22;9574;47.282;9.640;2023-05-10T01:18:26;14.00;99.90
18884;DHT22;9574;47.282;9.640;2023-05-10T01:21:00;14.10;99.90
18884;DHT22;9574;47.282;9.640;2023-05-10T01:29:54;14.00;99.90
18884;DHT22;9574;47.282;9.640;2023-05-10T01:32:32;14.00;99.90
18884;DHT22;9574;47.282;9.640;2023-05-10T01:35:04;13.80;99.90
18884;DHT22;9574;47.282;9.640;2023-05-10T01:37:40;13.80;99.90
18884;DHT22;9574;47.282;9.640;2023-05-10T01:40:16;13.60;99.90
18884;DHT22;9574;47.282;9.640;2023-05-10T01:42:49;13.50;99.90
18884;DHT22;9574;47.282;9.640;2023-05-10T01:45:21;13.40;99.90
18884;DHT22;9574;47.282;9.640;2023-05-10T01:48:01;13.30;99.90
18884;DHT22;9574;47.282;9.640;2023-05-10T01:50:31;13.30;99.90
18884;DHT22;9574;47.282;9.640;2023-05-10T01:53:00;13.30;99.90
18884;DHT22;9574;47.282;9.640;2023-05-10T01:55:32;13.30;99.90
18884;DHT22;9574;47.282;9.640;2023-05-10T01:58:05;13.20;99.90
18884;DHT22;9574;47.282;9.640;2023-05-10T02:00:34;13.20;99.90
18884;DHT22;9574;47.282;9.640;2023-05-10T02:03:06;13.20;99.90
18884;DHT22;9574;47.282;9.640;2023-05-10T02:05:34;13.20;99.90
18884;DHT22;9574;47.282;9.640;2023-05-10T02:08:03;13.20;99.90
18884;DHT22;9574;47.282;9.640;2023-05-10T02:10:32;13.20;99.90
18884;DHT22;9574;47.282;9.640;2023-05-10T02:12:59;13.30;99.90
18884;DHT22;9574;47.282;9.640;2023-05-10T02:15:27;13.20;99.90
18884;DHT22;9574;47.282;9.640;2023-05-10T02:17:56;13.20;99.90
18884;DHT22;9574;47.282;9.640;2023-05-10T02:20:25;13.10;99.90
18884;DHT22;9574;47.282;9.640;2023-05-10T02:22:54;13.20;99.90
18884;DHT22;9574;47.282;9.640;2023-05-10T02:25:23;13.10;99.90
18884;DHT22;9574;47.282;9.640;2023-05-10T02:27:51;13.10;99.90
18884;DHT22;9574;47.282;9.640;2023-05-10T02:30:21;13.00;99.90
18884;DHT22;9574;47.282;9.640;2023-05-10T02:32:49;13.10;99.90
18884;DHT22;9574;47.282;9.640;2023-05-10T02:35:16;13.10;99.90
18884;DHT22;9574;47.282;9.640;2023-05-10T02:37:45;13.00;99.90
18884;DHT22;9574;47.282;9.640;2023-05-10T02:40:15;13.00;99.90
18884;DHT22;9574;47.282;9.640;2023-05-10T02:42:44;13.10;99.90
18884;DHT22;9574;47.282;9.640;2023-05-10T02:45:14;13.10;99.90
18884;DHT22;9574;47.282;9.640;2023-05-10T02:47:41;13.00;99.90
18884;DHT22;9574;47.282;9.640;2023-05-10T02:50:09;13.00;99.90
18884;DHT22;9574;47.282;9.640;2023-05-10T02:52:42;13.10;99.90
18884;DHT22;9574;47.282;9.640;2023-05-10T02:55:13;13.10;99.90
18884;DHT22;9574;47.282;9.640;2023-05-10T02:57:45;13.10;99.90
18884;DHT22;9574;47.282;9.640;2023-05-10T03:00:13;13.00;99.90
18884;DHT22;9574;47.282;9.640;2023-05-10T03:02:40;13.00;99.90
18884;DHT22;9574;47.282;9.640;2023-05-10T03:05:08;13.10;99.90
18884;DHT22;9574;47.282;9.640;2023-05-10T03:07:35;13.10;99.90
18884;DHT22;9574;47.282;9.640;2023-05-10T03:10:03;13.10;99.90
18884;DHT22;9574;47.282;9.640;2023-05-10T03:12:43;13.10;99.90
18884;DHT22;9574;47.282;9.640;2023-05-10T03:15:17;12.90;99.90
18884;DHT22;9574;47.282;9.640;2023-05-10T03:17:52;12.80;99.90
18884;DHT22;9574;47.282;9.640;2023-05-10T03:20:24;12.80;99.90
18884;DHT22;9574;47.282;9.640;2023-05-10T03:22:55;12.80;99.90
18884;DHT22;9574;47.282;9.640;2023-05-10T03:25:27;12.80;99.90
18884;DHT22;9574;47.282;9.640;2023-05-10T03:27:58;12.80;99.90
18884;DHT22;9574;47.282;9.640;2023-05-10T03:30:28;12.80;99.90
18884;DHT22;9574;47.282;9.640;2023-05-10T03:32:57;12.80;99.90
18884;DHT22;9574;47.282;9.640;2023-05-10T03:35:24;13.20;99.90
18884;DHT22;9574;47.282;9.640;2023-05-10T03:37:51;13.30;99.90
18884;DHT22;9574;47.282;9.640;2023-05-10T03:40:18;13.50;99.90
18884;DHT22;9574;47.282;9.640;2023-05-10T03:42:45;13.40;99.90
18884;DHT22;9574;47.282;9.640;2023-05-10T03:45:13;13.60;99.90
18884;DHT22;9574;47.282;9.640;2023-05-10T03:47:40;13.70;99.90
18884;DHT22;9574;47.282;9.640;2023-05-10T03:50:08;13.60;99.90
18884;DHT22;9574;47.282;9.640;2023-05-10T03:52:35;13.50;99.90
18884;DHT22;9574;47.282;9.640;2023-05-10T03:55:05;13.60;99.90
18884;DHT22;9574;47.282;9.640;2023-05-10T03:57:32;13.50;99.90
18884;DHT22;9574;47.282;9.640;2023-05-10T03:59:59;13.50;99.90
18884;DHT22;9574;47.282;9.640;2023-05-10T04:02:28;13.70;99.90
18884;DHT22;9574;47.282;9.640;2023-05-10T04:04:55;13.90;99.90
18884;DHT22;9574;47.282;9.640;2023-05-10T04:07:22;13.80;99.90
18884;DHT22;9574;47.282;9.640;2023-05-10T04:09:49;13.50;99.90
18884;DHT22;9574;47.282;9.640;2023-05-10T04:12:16;13.30;99.90
18884;DHT22;9574;47.282;9.640;2023-05-10T04:14:43;13.20;99.90
18884;DHT22;9574;47.282;9.640;2023-05-10T04:17:10;13.20;99.90
18884;DHT22;9574;47.282;9.640;2023-05-10T04:19:38;13.50;99.90
18884;DHT22;9574;47.282;9.640;2023-05-10T04:22:05;13.80;99.90
18884;DHT22;9574;47.282;9.640;2023-05-10T04:24:32;13.90;99.90
18884;DHT22;9574;47.282;9.640;2023-05-10T04:26:59;13.70;99.90
18884;DHT22;9574;47.282;9.640;2023-05-10T04:29:26;13.40;99.90
18884;DHT22;9574;47.282;9.640;2023-05-10T04:31:53;13.40;99.90
18884;DHT22;9574;47.282;9.640;2023-05-10T04:34:22;13.30;99.90
18884;DHT22;9574;47.282;9.640;2023-05-10T04:36:50;13.20;99.90
18884;DHT22;9574;47.282;9.640;2023-05-10T04:39:17;13.30;99.90
18884;DHT22;9574;47.282;9.640;2023-05-10T04:41:44;13.60;99.90
18884;DHT22;9574;47.282;9.640;2023-05-10T04:44:11;13.50;99.90
18884;DHT22;9574;47.282;9.640;2023-05-10T04:46:38;13.60;99.90
18884;DHT22;9574;47.282;9.640;2023-05-10T04:49:05;13.80;99.90
18884;DHT22;9574;47.282;9.640;2023-05-10T04:51:32;14.00;99.90
18884;DHT22;9574;47.282;9.640;2023-05-10T04:54:00;13.80;99.90
18884;DHT22;9574;47.282;9.640;2023-05-10T04:56:27;13.50;99.90
18884;DHT22;9574;47.282;9.640;2023-05-10T04:58:54;13.30;99.90
18884;DHT22;9574;47.282;9.640;2023-05-10T05:01:21;13.30;99.90
18884;DHT22;9574;47.282;9.640;2023-05-10T05:03:48;13.20;99.90
18884;DHT22;9574;47.282;9.640;2023-05-10T05:06:16;13.30;99.90
18884;DHT22;9574;47.282;9.640;2023-05-10T05:08:43;13.20;99.90
18884;DHT22;9574;47.282;9.640;2023-05-10T05:11:11;13.10;99.90
18884;DHT22;9574;47.282;9.640;2023-05-10T05:13:38;13.10;99.90
18884;DHT22;9574;47.282;9.640;2023-05-10T05:16:05;13.10;99.90
18884;DHT22;9574;47.282;9.640;2023-05-10T05:18:32;13.10;99.90
18884;DHT22;9574;47.282;9.640;2023-05-10T05:20:59;13.10;99.90
18884;DHT22;9574;47.282;9.640;2023-05-10T05:23:26;12.90;99.90
18884;DHT22;9574;47.282;9.640;2023-05-10T05:25:53;12.90;99.90
18884;DHT22;9574;47.282;9.640;2023-05-10T05:28:22;12.90;99.90
18884;DHT22;9574;47.282;9.640;2023-05-10T05:30:49;12.90;99.90
18884;DHT22;9574;47.282;9.640;2023-05-10T05:33:16;13.00;99.90
18884;DHT22;9574;47.282;9.640;2023-05-10T05:35:43;13.10;99.90
18884;DHT22;9574;47.282;9.640;2023-05-10T05:38:13;13.10;99.90
18884;DHT22;9574;47.282;9.640;2023-05-10T05:40:40;13.20;99.90
18884;DHT22;9574;47.282;9.640;2023-05-10T05:43:07;13.20;99.90
18884;DHT22;9574;47.282;9.640;2023-05-10T05:45:35;13.50;99.90
18884;DHT22;9574;47.282;9.640;2023-05-10T05:48:02;13.60;99.90
18884;DHT22;9574;47.282;9.640;2023-05-10T05:50:29;13.40;99.90
18884;DHT22;9574;47.282;9.640;2023-05-10T05:52:56;13.70;99.90
18884;DHT22;9574;47.282;9.640;2023-05-10T05:55:23;13.90;99.90
18884;DHT22;9574;47.282;9.640;2023-05-10T05:57:51;14.00;99.90
18884;DHT22;9574;47.282;9.640;2023-05-10T06:00:19;13.80;99.90
18884;DHT22;9574;47.282;9.640;2023-05-10T06:02:48;13.60;99.90
18884;DHT22;9574;47.282;9.640;2023-05-10T06:05:15;13.70;99.90
18884;DHT22;9574;47.282;9.640;2023-05-10T06:07:42;13.90;99.90
18884;DHT22;9574;47.282;9.640;2023-05-10T06:10:09;14.00;99.90
18884;DHT22;9574;47.282;9.640;2023-05-10T06:12:36;14.10;99.90
18884;DHT22;9574;47.282;9.640;2023-05-10T06:15:03;13.80;99.90
18884;DHT22;9574;47.282;9.640;2023-05-10T06:17:31;13.50;99.90
18884;DHT22;9574;47.282;9.640;2023-05-10T06:19:59;13.50;99.90
18884;DHT22;9574;47.282;9.640;2023-05-10T06:22:26;13.60;99.90
18884;DHT22;9574;47.282;9.640;2023-05-10T06:24:53;13.70;99.90
18884;DHT22;9574;47.282;9.640;2023-05-10T06:27:20;13.90;99.90
18884;DHT22;9574;47.282;9.640;2023-05-10T06:29:47;13.70;99.90
18884;DHT22;9574;47.282;9.640;2023-05-10T06:32:14;13.40;99.90
18884;DHT22;9574;47.282;9.640;2023-05-10T06:34:41;13.40;99.90
18884;DHT22;9574;47.282;9.640;2023-05-10T06:37:10;13.50;99.90
18884;DHT22;9574;47.282;9.640;2023-05-10T06:39:37;13.60;99.90
18884;DHT22;9574;47.282;9.640;2023-05-10T06:42:04;13.70;99.90
18884;DHT22;9574;47.282;9.640;2023-05-10T06:44:31;13.60;99.90
18884;DHT22;9574;47.282;9.640;2023-05-10T06:46:58;13.50;99.90
18884;DHT22;9574;47.282;9.640;2023-05-10T06:49:25;13.50;99.90
18884;DHT22;9574;47.282;9.640;2023-05-10T06:51:52;13.50;99.90
18884;DHT22;9574;47.282;9.640;2023-05-10T06:54:20;13.40;99.90
18884;DHT22;9574;47.282;9.640;2023-05-10T06:56:48;13.30;99.90
18884;DHT22;9574;47.282;9.640;2023-05-10T06:59:15;13.20;99.90
18884;DHT22;9574;47.282;9.640;2023-05-10T07:01:44;13.20;99.90
18884;DHT22;9574;47.282;9.640;2023-05-10T07:04:11;13.20;99.90
18884;DHT22;9574;47.282;9.640;2023-05-10T07:06:39;13.20;99.90
18884;DHT22;9574;47.282;9.640;2023-05-10T07:09:06;13.20;99.90
18884;DHT22;9574;47.282;9.640;2023-05-10T07:11:34;13.30;99.90
18884;DHT22;9574;47.282;9.640;2023-05-10T07:14:03;13.30;99.90
18884;DHT22;9574;47.282;9.640;2023-05-10T07:16:30;13.30;99.90
18884;DHT22;9574;47.282;9.640;2023-05-10T07:18:56;13.40;99.90
18884;DHT22;9574;47.282;9.640;2023-05-10T07:21:23;13.40;99.90
18884;DHT22;9574;47.282;9.640;2023-05-10T07:23:53;13.60;99.90
18884;DHT22;9574;47.282;9.640;2023-05-10T07:26:20;13.50;99.90
18884;DHT22;9574;47.282;9.640;2023-05-10T07:28:49;13.30;99.90
18884;DHT22;9574;47.282;9.640;2023-05-10T07:31:16;13.30;99.90
18884;DHT22;9574;47.282;9.640;2023-05-10T07:33:43;13.10;99.90
18884;DHT22;9574;47.282;9.640;2023-05-10T07:36:10;13.10;99.90
18884;DHT22;9574;47.282;9.640;2023-05-10T07:38:37;13.20;99.90
18884;DHT22;9574;47.282;9.640;2023-05-10T07:41:05;13.30;99.90
18884;DHT22;9574;47.282;9.640;2023-05-10T07:43:32;13.40;99.90
18884;DHT22;9574;47.282;9.640;2023-05-10T07:46:00;13.20;99.90
18884;DHT22;9574;47.282;9.640;2023-05-10T07:48:27;13.00;99.90
18884;DHT22;9574;47.282;9.640;2023-05-10T07:50:54;12.90;99.90
18884;DHT22;9574;47.282;9.640;2023-05-10T07:53:21;12.90;99.90
18884;DHT22;9574;47.282;9.640;2023-05-10T07:55:50;12.90;99.90
18884;DHT22;9574;47.282;9.640;2023-05-10T07:58:17;13.10;99.90
18884;DHT22;9574;47.282;9.640;2023-05-10T08:00:44;13.00;99.90
18884;DHT22;9574;47.282;9.640;2023-05-10T08:03:12;13.00;99.90
18884;DHT22;9574;47.282;9.640;2023-05-10T08:05:39;13.10;99.90
18884;DHT22;9574;47.282;9.640;2023-05-10T08:08:07;13.20;99.90
18884;DHT22;9574;47.282;9.640;2023-05-10T08:10:34;13.30;99.90
18884;DHT22;9574;47.282;9.640;2023-05-10T08:13:01;13.30;99.90
18884;DHT22;9574;47.282;9.640;2023-05-10T08:15:28;13.50;99.90
18884;DHT22;9574;47.282;9.640;2023-05-10T08:17:55;13.60;99.90
18884;DHT22;9574;47.282;9.640;2023-05-10T08:20:23;13.40;99.90
18884;DHT22;9574;47.282;9.640;2023-05-10T08:22:50;13.30;99.90
18884;DHT22;9574;47.282;9.640;2023-05-10T08:25:17;13.30;99.90
18884;DHT22;9574;47.282;9.640;2023-05-10T08:27:44;13.10;99.90
18884;DHT22;9574;47.282;9.640;2023-05-10T08:30:12;13.20;99.90
18884;DHT22;9574;47.282;9.640;2023-05-10T08:32:39;13.20;99.90
18884;DHT22;9574;47.282;9.640;2023-05-10T08:35:06;13.30;99.90
18884;DHT22;9574;47.282;9.640;2023-05-10T08:37:34;13.30;99.90
18884;DHT22;9574;47.282;9.640;2023-05-10T08:40:02;13.20;99.90
18884;DHT22;9574;47.282;9.640;2023-05-10T08:42:30;13.20;99.90
18884;DHT22;9574;47.282;9.640;2023-05-10T08:44:59;13.00;99.90
18884;DHT22;9574;47.282;9.640;2023-05-10T08:47:27;13.10;99.90
18884;DHT22;9574;47.282;9.640;2023-05-10T08:49:54;13.10;99.90
18884;DHT22;9574;47.282;9.640;2023-05-10T08:52:24;13.20;99.90
18884;DHT22;9574;47.282;9.640;2023-05-10T08:54:54;13.10;99.90
18884;DHT22;9574;47.282;9.640;2023-05-10T08:57:21;13.10;99.90
18884;DHT22;9574;47.282;9.640;2023-05-10T08:59:48;13.10;99.90
18884;DHT22;9574;47.282;9.640;2023-05-10T09:02:16;13.30;99.90
18884;DHT22;9574;47.282;9.640;2023-05-10T09:04:44;13.40;99.90
18884;DHT22;9574;47.282;9.640;2023-05-10T09:07:11;13.50;99.90
18884;DHT22;9574;47.282;9.640;2023-05-10T09:09:38;13.60;99.90
18884;DHT22;9574;47.282;9.640;2023-05-10T09:12:08;13.50;99.90
18884;DHT22;9574;47.282;9.640;2023-05-10T09:14:37;13.50;99.90
18884;DHT22;9574;47.282;9.640;2023-05-10T09:17:04;13.50;99.90
18884;DHT22;9574;47.282;9.640;2023-05-10T09:19:31;13.60;99.90
18884;DHT22;9574;47.282;9.640;2023-05-10T09:21:58;13.50;99.90
18884;DHT22;9574;47.282;9.640;2023-05-10T09:24:30;13.40;99.90
18884;DHT22;9574;47.282;9.640;2023-05-10T09:26:57;13.50;99.90
18884;DHT22;9574;47.282;9.640;2023-05-10T09:29:25;13.40;99.90
18884;DHT22;9574;47.282;9.640;2023-05-10T09:31:53;13.40;99.90
18884;DHT22;9574;47.282;9.640;2023-05-10T09:34:29;13.50;99.90
18884;DHT22;9574;47.282;9.640;2023-05-10T09:36:57;13.60;99.90
18884;DHT22;9574;47.282;9.640;2023-05-10T09:39:33;13.60;99.90
18884;DHT22;9574;47.282;9.640;2023-05-10T09:42:02;13.60;99.90
18884;DHT22;9574;47.282;9.640;2023-05-10T09:44:32;13.70;99.90
18884;DHT22;9574;47.282;9.640;2023-05-10T09:47:00;13.80;99.90
18884;DHT22;9574;47.282;9.640;2023-05-10T09:49:27;13.60;99.90
18884;DHT22;9574;47.282;9.640;2023-05-10T09:52:01;13.60;99.90
18884;DHT22;9574;47.282;9.640;2023-05-10T09:54:29;13.80;99.90
18884;DHT22;9574;47.282;9.640;2023-05-10T09:56:56;13.80;99.90
18884;DHT22;9574;47.282;9.640;2023-05-10T09:59:25;13.70;99.90
18884;DHT22;9574;47.282;9.640;2023-05-10T10:01:55;13.70;99.90
18884;DHT22;9574;47.282;9.640;2023-05-10T10:04:23;13.70;99.90
18884;DHT22;9574;47.282;9.640;2023-05-10T10:06:59;13.70;99.90
18884;DHT22;9574;47.282;9.640;2023-05-10T10:09:27;13.60;99.90
18884;DHT22;9574;47.282;9.640;2023-05-10T10:11:54;13.80;99.90
18884;DHT22;9574;47.282;9.640;2023-05-10T10:14:22;13.80;99.90
18884;DHT22;9574;47.282;9.640;2023-05-10T10:16:50;14.00;99.90
18884;DHT22;9574;47.282;9.640;2023-05-10T10:19:19;14.10;99.90
18884;DHT22;9574;47.282;9.640;2023-05-10T10:21:46;14.20;99.90
18884;DHT22;9574;47.282;9.640;2023-05-10T10:24:13;14.40;99.90
18884;DHT22;9574;47.282;9.640;2023-05-10T10:26:41;14.40;99.90
18884;DHT22;9574;47.282;9.640;2023-05-10T10:29:18;14.40;99.90
18884;DHT22;9574;47.282;9.640;2023-05-10T10:31:50;14.30;99.90
18884;DHT22;9574;47.282;9.640;2023-05-10T10:34:25;14.40;99.90
18884;DHT22;9574;47.282;9.640;2023-05-10T10:36:54;14.30;99.90
18884;DHT22;9574;47.282;9.640;2023-05-10T10:39:22;14.40;99.90
18884;DHT22;9574;47.282;9.640;2023-05-10T10:41:51;14.40;99.90
18884;DHT22;9574;47.282;9.640;2023-05-10T10:44:36;14.50;99.90
18884;DHT22;9574;47.282;9.640;2023-05-10T10:47:22;14.60;99.90
18884;DHT22;9574;47.282;9.640;2023-05-10T10:50:06;14.70;99.90
18884;DHT22;9574;47.282;9.640;2023-05-10T10:52:35;14.70;99.90
18884;DHT22;9574;47.282;9.640;2023-05-10T10:55:04;14.60;99.90
18884;DHT22;9574;47.282;9.640;2023-05-10T10:57:33;14.50;99.90
18884;DHT22;9574;47.282;9.640;2023-05-10T11:00:20;14.30;99.90
18884;DHT22;9574;47.282;9.640;2023-05-10T11:02:48;14.20;99.90
18884;DHT22;9574;47.282;9.640;2023-05-10T11:05:45;13.90;99.90
18884;DHT22;9574;47.282;9.640;2023-05-10T11:08:17;13.80;99.90
18884;DHT22;9574;47.282;9.640;2023-05-10T11:10:52;13.70;99.90
18884;DHT22;9574;47.282;9.640;2023-05-10T11:13:28;13.60;99.90
18884;DHT22;9574;47.282;9.640;2023-05-10T11:15:56;13.50;99.90
18884;DHT22;9574;47.282;9.640;2023-05-10T11:18:26;13.50;99.90
18884;DHT22;9574;47.282;9.640;2023-05-10T11:20:57;13.40;99.90
18884;DHT22;9574;47.282;9.640;2023-05-10T11:23:29;13.40;99.90
18884;DHT22;9574;47.282;9.640;2023-05-10T11:25:57;13.40;99.90
18884;DHT22;9574;47.282;9.640;2023-05-10T11:28:24;13.40;99.90
18884;DHT22;9574;47.282;9.640;2023-05-10T11:30:52;13.30;99.90
18884;DHT22;9574;47.282;9.640;2023-05-10T11:33:20;13.40;99.90
18884;DHT22;9574;47.282;9.640;2023-05-10T11:35:47;13.50;99.90
18884;DHT22;9574;47.282;9.640;2023-05-10T11:38:15;13.40;99.90
18884;DHT22;9574;47.282;9.640;2023-05-10T11:40:42;13.40;99.90
18884;DHT22;9574;47.282;9.640;2023-05-10T11:43:10;13.60;99.90
18884;DHT22;9574;47.282;9.640;2023-05-10T11:45:39;13.70;99.90
18884;DHT22;9574;47.282;9.640;2023-05-10T11:48:06;13.70;99.90
18884;DHT22;9574;47.282;9.640;2023-05-10T11:50:34;13.70;99.90
18884;DHT22;9574;47.282;9.640;2023-05-10T11:53:01;13.70;99.90
18884;DHT22;9574;47.282;9.640;2023-05-10T11:55:33;13.60;99.90
18884;DHT22;9574;47.282;9.640;2023-05-10T11:58:01;13.60;99.90
18884;DHT22;9574;47.282;9.640;2023-05-10T12:00:29;13.60;99.90
18884;DHT22;9574;47.282;9.640;2023-05-10T12:02:57;13.60;99.90
18884;DHT22;9574;47.282;9.640;2023-05-10T12:05:24;13.40;99.90
18884;DHT22;9574;47.282;9.640;2023-05-10T12:07:52;13.50;99.90
18884;DHT22;9574;47.282;9.640;2023-05-10T12:10:26;13.60;99.90
18884;DHT22;9574;47.282;9.640;2023-05-10T12:12:56;13.70;99.90
18884;DHT22;9574;47.282;9.640;2023-05-10T12:15:24;13.70;99.90
18884;DHT22;9574;47.282;9.640;2023-05-10T12:17:51;13.70;99.90
18884;DHT22;9574;47.282;9.640;2023-05-10T12:20:19;13.70;99.90
18884;DHT22;9574;47.282;9.640;2023-05-10T12:22:49;13.80;99.90
18884;DHT22;9574;47.282;9.640;2023-05-10T12:25:17;14.00;99.90
18884;DHT22;9574;47.282;9.640;2023-05-10T12:27:56;14.10;99.90
18884;DHT22;9574;47.282;9.640;2023-05-10T12:30:24;14.10;99.90
18884;DHT22;9574;47.282;9.640;2023-05-10T12:32:51;14.40;99.90
18884;DHT22;9574;47.282;9.640;2023-05-10T12:35:19;14.60;99.90
18884;DHT22;9574;47.282;9.640;2023-05-10T12:37:47;14.80;99.90
18884;DHT22;9574;47.282;9.640;2023-05-10T12:40:14;14.80;99.90
18884;DHT22;9574;47.282;9.640;2023-05-10T12:42:41;14.80;99.90
18884;DHT22;9574;47.282;9.640;2023-05-10T12:45:11;14.90;99.90
18884;DHT22;9574;47.282;9.640;2023-05-10T12:47:39;14.90;99.90
18884;DHT22;9574;47.282;9.640;2023-05-10T12:50:06;14.80;99.90
18884;DHT22;9574;47.282;9.640;2023-05-10T12:52:33;14.80;99.90
18884;DHT22;9574;47.282;9.640;2023-05-10T12:55:01;14.80;99.90
18884;DHT22;9574;47.282;9.640;2023-05-10T12:57:29;14.90;99.90
18884;DHT22;9574;47.282;9.640;2023-05-10T12:59:56;14.90;99.90
18884;DHT22;9574;47.282;9.640;2023-05-10T13:02:25;14.90;99.90
18884;DHT22;9574;47.282;9.640;2023-05-10T13:04:52;15.00;99.90
18884;DHT22;9574;47.282;9.640;2023-05-10T13:07:20;15.10;99.90
18884;DHT22;9574;47.282;9.640;2023-05-10T13:09:47;15.10;99.90
18884;DHT22;9574;47.282;9.640;2023-05-10T13:12:14;15.10;99.90
18884;DHT22;9574;47.282;9.640;2023-05-10T13:14:43;15.10;99.90
18884;DHT22;9574;47.282;9.640;2023-05-10T13:17:10;15.00;99.90
18884;DHT22;9574;47.282;9.640;2023-05-10T13:19:39;14.60;99.90
18884;DHT22;9574;47.282;9.640;2023-05-10T13:22:06;14.30;99.90
18884;DHT22;9574;47.282;9.640;2023-05-10T13:24:33;14.10;99.90
18884;DHT22;9574;47.282;9.640;2023-05-10T13:27:00;13.90;99.90
18884;DHT22;9574;47.282;9.640;2023-05-10T13:29:28;13.70;99.90
18884;DHT22;9574;47.282;9.640;2023-05-10T13:31:55;13.70;99.90
18884;DHT22;9574;47.282;9.640;2023-05-10T13:34:22;13.70;99.90
18884;DHT22;9574;47.282;9.640;2023-05-10T13:36:52;13.80;99.90
18884;DHT22;9574;47.282;9.640;2023-05-10T13:39:21;13.70;99.90
18884;DHT22;9574;47.282;9.640;2023-05-10T13:41:49;13.60;99.90
18884;DHT22;9574;47.282;9.640;2023-05-10T13:44:16;13.60;99.90
18884;DHT22;9574;47.282;9.640;2023-05-10T13:46:43;13.50;99.90
18884;DHT22;9574;47.282;9.640;2023-05-10T13:49:10;13.50;99.90
18884;DHT22;9574;47.282;9.640;2023-05-10T13:51:37;13.60;99.90
18884;DHT22;9574;47.282;9.640;2023-05-10T13:54:06;13.50;99.90
18884;DHT22;9574;47.282;9.640;2023-05-10T13:56:33;13.50;99.90
18884;DHT22;9574;47.282;9.640;2023-05-10T13:59:01;13.40;99.90
18884;DHT22;9574;47.282;9.640;2023-05-10T14:01:28;13.30;99.90
18884;DHT22;9574;47.282;9.640;2023-05-10T14:03:55;13.30;99.90
18884;DHT22;9574;47.282;9.640;2023-05-10T14:06:22;13.20;99.90
18884;DHT22;9574;47.282;9.640;2023-05-10T14:08:49;13.20;99.90
18884;DHT22;9574;47.282;9.640;2023-05-10T14:11:17;13.20;99.90
18884;DHT22;9574;47.282;9.640;2023-05-10T14:13:45;13.20;99.90
18884;DHT22;9574;47.282;9.640;2023-05-10T14:16:12;13.10;99.90
18884;DHT22;9574;47.282;9.640;2023-05-10T14:18:40;13.10;99.90
18884;DHT22;9574;47.282;9.640;2023-05-10T14:21:07;12.90;99.90
18884;DHT22;9574;47.282;9.640;2023-05-10T14:23:34;12.80;99.90
18884;DHT22;9574;47.282;9.640;2023-05-10T14:26:01;12.80;99.90
18884;DHT22;9574;47.282;9.640;2023-05-10T14:28:30;12.70;99.90
18884;DHT22;9574;47.282;9.640;2023-05-10T14:30:57;12.70;99.90
18884;DHT22;9574;47.282;9.640;2023-05-10T14:33:24;12.80;99.90
18884;DHT22;9574;47.282;9.640;2023-05-10T14:35:51;12.90;99.90
18884;DHT22;9574;47.282;9.640;2023-05-10T14:38:18;13.00;99.90
18884;DHT22;9574;47.282;9.640;2023-05-10T14:40:45;13.10;99.90
18884;DHT22;9574;47.282;9.640;2023-05-10T14:43:12;13.20;99.90
18884;DHT22;9574;47.282;9.640;2023-05-10T14:45:40;13.20;99.90
18884;DHT22;9574;47.282;9.640;2023-05-10T14:48:07;13.40;99.90
18884;DHT22;9574;47.282;9.640;2023-05-10T14:50:37;13.40;99.90
18884;DHT22;9574;47.282;9.640;2023-05-10T14:53:05;13.40;99.90
18884;DHT22;9574;47.282;9.640;2023-05-10T14:55:32;13.40;99.90
18884;DHT22;9574;47.282;9.640;2023-05-10T14:58:00;13.30;99.90
18884;DHT22;9574;47.282;9.640;2023-05-10T15:00:28;13.40;99.90
18884;DHT22;9574;47.282;9.640;2023-05-10T15:02:57;13.10;99.90
18884;DHT22;9574;47.282;9.640;2023-05-10T15:05:24;13.00;99.90
18884;DHT22;9574;47.282;9.640;2023-05-10T15:07:51;13.00;99.90
18884;DHT22;9574;47.282;9.640;2023-05-10T15:10:18;13.00;99.90
18884;DHT22;9574;47.282;9.640;2023-05-10T15:12:48;13.10;99.90
18884;DHT22;9574;47.282;9.640;2023-05-10T15:15:15;13.20;99.90
18884;DHT22;9574;47.282;9.640;2023-05-10T15:17:42;13.50;99.90
18884;DHT22;9574;47.282;9.640;2023-05-10T15:20:11;13.60;99.90
18884;DHT22;9574;47.282;9.640;2023-05-10T15:22:38;13.70;99.90
18884;DHT22;9574;47.282;9.640;2023-05-10T15:25:05;13.70;99.90
18884;DHT22;9574;47.282;9.640;2023-05-10T15:27:32;13.40;99.90
18884;DHT22;9574;47.282;9.640;2023-05-10T15:30:00;13.40;99.90
18884;DHT22;9574;47.282;9.640;2023-05-10T15:32:27;13.40;99.90
18884;DHT22;9574;47.282;9.640;2023-05-10T15:34:54;13.00;99.90
18884;DHT22;9574;47.282;9.640;2023-05-10T15:37:23;12.60;99.90
18884;DHT22;9574;47.282;9.640;2023-05-10T15:39:50;12.60;99.90
18884;DHT22;9574;47.282;9.640;2023-05-10T15:42:17;12.50;99.90
18884;DHT22;9574;47.282;9.640;2023-05-10T15:44:44;12.40;99.90
18884;DHT22;9574;47.282;9.640;2023-05-10T15:47:15;12.40;99.90
18884;DHT22;9574;47.282;9.640;2023-05-10T15:49:42;12.30;99.90
18884;DHT22;9574;47.282;9.640;2023-05-10T15:52:09;12.20;99.90
18884;DHT22;9574;47.282;9.640;2023-05-10T15:54:38;12.20;99.90
18884;DHT22;9574;47.282;9.640;2023-05-10T15:57:05;12.10;99.90
18884;DHT22;9574;47.282;9.640;2023-05-10T15:59:32;12.10;99.90